If you wish to contribute or participate in the discussions about articles you are invited to join SKYbrary as a registered user

 Actions

Barra do Garças Airport

From SKYbrary Wiki

SBBW
Airport
ICAO: SBBW – IATA: BPG
Summary
Name Barra do Garças Airport
Region South America and Caribbean
Territory Brazil BR.gif
Location Barra do Garças, Mato Grosso
Serving Barra do Garças
Elevation 349.606 m
1,147 ft349.606 m
Coordinates 15° 51' 38.99" S, 52° 23' 21.98" W
Runways
Designator Length Width Surface ROPS
7/25 1598 m5,242.782 ft
30 m98.425 ft
ASP /


METAR
Observation SBBW 102100Z 35004KT 9999 SCT020 SCT100 30/24 Q1012
Station Barra Do Garcas
Date/Time 10 April 2019 21:00:00
Wind direction 350°
Wind speed 04 kts
Lowest cloud amount scattered clouds
Temperature 30°C
Dew point 24°C
Humidity 70%
QNH 1012 hPa
Weather condition n/a

Barra do Garças Airport is the airport serving Barra do Garças, Brazil.

Climatology

Tropical savanna climate (Köppen climate classification Aw)

Maps

Terrain

Loading map...

Airport Layout

Loading map...


Accidents & Serious Incidents at or in vicinity of SBBW

None on SKYbrary